createdAt,value
2018-12-07T00:00:46.250Z,58.8
2018-12-07T00:01:36.614Z,58.8
2018-12-07T00:02:25.602Z,58.8
2018-12-07T00:03:15.904Z,58.8
2018-12-07T00:04:05.807Z,58.8
2018-12-07T00:04:56.026Z,58.7
2018-12-07T00:05:46.114Z,58.8
2018-12-07T00:06:36.162Z,58.7
2018-12-07T00:24:44.761Z,58.5
2018-12-07T00:27:14.900Z,58.5
2018-12-07T00:28:04.387Z,58.5
2018-12-07T00:28:54.987Z,58.5
2018-12-07T00:29:44.877Z,58.5
2018-12-07T00:30:34.574Z,58.5
2018-12-07T00:31:24.887Z,58.4
2018-12-07T00:32:15.044Z,58.5
2018-12-07T00:33:04.737Z,58.4
2018-12-07T00:33:53.952Z,58.4
2018-12-07T00:34:45.272Z,58.4
2018-12-07T00:35:34.912Z,58.4
2018-12-07T00:36:25.334Z,58.4
2018-12-07T00:37:15.577Z,58.4
2018-12-07T00:38:05.355Z,58.4
2018-12-07T00:38:55.742Z,58.4
2018-12-07T00:39:45.451Z,58.4
2018-12-07T00:40:35.019Z,58.4
2018-12-07T00:41:25.868Z,58.4
2018-12-07T00:42:15.086Z,58.4
2018-12-07T00:43:05.980Z,58.4
2018-12-07T00:43:56.061Z,58.4
2018-12-07T00:44:45.251Z,58.4
2018-12-07T00:45:35.567Z,58.3
2018-12-07T00:46:25.386Z,58.3
2018-12-07T00:47:15.966Z,58.3
2018-12-07T00:48:05.509Z,58.3
2018-12-07T00:48:56.604Z,58.3
2018-12-07T00:49:45.964Z,58.3
2018-12-07T00:50:35.986Z,58.3
2018-12-07T00:51:25.993Z,58.3
2018-12-07T00:52:16.048Z,58.3
2018-12-07T00:53:06.108Z,58.3
2018-12-07T00:53:56.736Z,58.3
2018-12-07T00:54:46.214Z,58.3
2018-12-07T00:55:37.074Z,58.3
2018-12-07T00:56:26.165Z,58.3
2018-12-07T00:57:15.830Z,58.3
2018-12-07T00:58:07.019Z,58.2
2018-12-07T00:58:56.468Z,58.3
2018-12-07T00:59:46.843Z,58.2
2018-12-07T01:00:36.683Z,58.2
2018-12-07T01:01:26.666Z,58.2
2018-12-07T01:02:16.195Z,58.2
2018-12-07T01:03:07.101Z,58.2
2018-12-07T01:03:57.704Z,58.2
2018-12-07T01:04:47.177Z,58.2
2018-12-07T01:05:37.743Z,58.2
2018-12-07T01:06:27.307Z,58.2
2018-12-07T01:07:16.527Z,58.1
2018-12-07T01:08:07.402Z,58.1
2018-12-07T01:08:57.192Z,58.1
2018-12-07T01:09:47.247Z,58.1
2018-12-07T01:10:37.650Z,58.1
2018-12-07T01:11:27.367Z,58.1
2018-12-07T01:12:17.687Z,58.1
2018-12-07T01:13:07.510Z,58.1
2018-12-07T01:13:58.165Z,58.1
2018-12-07T01:14:47.875Z,58.1
2018-12-07T01:15:38.003Z,58.1
2018-12-07T01:16:27.450Z,58.1
2018-12-07T01:17:18.007Z,58.1
2018-12-07T01:18:08.122Z,58.1
2018-12-07T01:18:57.382Z,58.1
2018-12-07T01:19:48.218Z,58.1
2018-12-07T01:20:38.000Z,58.1
2018-12-07T01:21:28.337Z,58
2018-12-07T01:22:18.684Z,58
2018-12-07T01:23:07.629Z,58
2018-12-07T01:23:58.249Z,58
2018-12-07T01:24:48.832Z,58
2018-12-07T01:25:38.884Z,58
2018-12-07T01:26:28.474Z,58
2018-12-07T01:27:18.404Z,57.9
2018-12-07T01:28:08.249Z,57.9
2018-12-07T01:28:58.566Z,57.9
2018-12-07T01:29:48.966Z,57.9
2018-12-07T01:30:39.231Z,57.9
2018-12-07T01:31:29.608Z,57.9
2018-12-07T01:32:19.631Z,57.9
2018-12-07T01:33:09.135Z,57.9
2018-12-07T01:33:58.916Z,57.9
2018-12-07T01:34:49.533Z,57.9
2018-12-07T01:35:39.413Z,57.9
2018-12-07T01:36:28.817Z,57.9
2018-12-07T01:37:20.036Z,57.9
2018-12-07T01:38:08.928Z,57.9
2018-12-07T01:38:59.533Z,57.9
2018-12-07T01:39:48.213Z,57.9
2018-12-07T01:40:39.458Z,57.9
2018-12-07T01:41:29.740Z,57.9
2018-12-07T01:42:20.030Z,57.8
2018-12-07T01:43:09.537Z,57.8
2018-12-07T01:43:59.878Z,57.8
2018-12-07T01:44:49.678Z,57.8
2018-12-07T01:45:39.715Z,57.8
2018-12-07T01:46:29.815Z,57.8
2018-12-07T01:47:20.367Z,57.8
2018-12-07T01:48:10.175Z,57.8
2018-12-07T01:55:40.759Z,57.7
2018-12-07T01:56:30.466Z,57.7
2018-12-07T01:57:21.056Z,57.7
2018-12-07T01:58:11.154Z,57.7
2018-12-07T01:59:00.919Z,57.7
2018-12-07T01:59:50.691Z,57.7
2018-12-07T02:00:41.079Z,57.7
2018-12-07T02:01:31.079Z,57.7
2018-12-07T02:02:20.879Z,57.6
2018-12-07T02:03:10.357Z,57.6
2018-12-07T02:04:01.551Z,57.6
2018-12-07T02:04:51.401Z,57.6
2018-12-07T02:05:41.368Z,57.6
2018-12-07T02:06:30.883Z,57.6
2018-12-07T02:07:22.031Z,57.6
2018-12-07T02:08:11.796Z,57.6
2018-12-07T02:09:01.063Z,57.6
2018-12-07T02:09:50.848Z,57.6
2018-12-07T02:10:42.020Z,57.6
2018-12-07T02:11:31.503Z,57.6
2018-12-07T02:12:21.548Z,57.6
2018-12-07T02:13:11.907Z,57.6
2018-12-07T02:14:02.228Z,57.6
2018-12-07T02:14:51.458Z,57.6
2018-12-07T02:15:41.518Z,57.6
2018-12-07T02:16:31.016Z,57.5
2018-12-07T02:17:21.998Z,57.5
2018-12-07T02:18:12.255Z,57.5
2018-12-07T02:19:02.021Z,57.5
2018-12-07T02:19:52.340Z,57.5
2018-12-07T02:20:42.410Z,57.5
2018-12-07T02:21:32.470Z,57.5
2018-12-07T02:22:22.047Z,57.5
2018-12-07T02:23:12.297Z,57.5
2018-12-07T02:24:02.928Z,57.4
2018-12-07T02:24:52.137Z,57.4
2018-12-07T02:25:43.025Z,57.4
2018-12-07T02:26:33.103Z,57.4
2018-12-07T02:27:22.555Z,57.4
2018-12-07T02:28:12.979Z,57.4
2018-12-07T02:29:02.771Z,57.4
2018-12-07T02:29:52.507Z,57.4
2018-12-07T02:30:42.885Z,57.4
2018-12-07T02:31:33.185Z,57.4
2018-12-07T02:32:22.959Z,57.4
2018-12-07T02:33:13.582Z,57.4
2018-12-07T02:34:03.646Z,57.4
2018-12-07T02:34:53.680Z,57.4
2018-12-07T02:35:42.882Z,57.4
2018-12-07T02:36:33.535Z,57.4
2018-12-07T02:37:23.552Z,57.4
2018-12-07T02:38:14.165Z,57.3
2018-12-07T02:39:03.414Z,57.3
2018-12-07T02:39:53.731Z,57.3
2018-12-07T02:40:44.241Z,57.3
2018-12-07T02:41:33.849Z,57.3
2018-12-07T02:42:24.164Z,57.3
2018-12-07T02:43:14.226Z,57.3
2018-12-07T02:44:03.563Z,57.3
2018-12-07T02:44:54.384Z,57.3
2018-12-07T02:45:43.563Z,57.3
2018-12-07T02:46:34.186Z,57.3
2018-12-07T02:47:24.338Z,57.3
2018-12-07T02:48:13.788Z,57.3
2018-12-07T02:49:04.388Z,57.3
2018-12-07T02:49:54.481Z,57.3
2018-12-07T02:50:44.763Z,57.3
2018-12-07T02:51:34.263Z,57.2
2018-12-07T02:52:24.578Z,57.2
2018-12-07T02:53:14.084Z,57.3
2018-12-07T02:54:04.557Z,57.2
2018-12-07T02:54:54.490Z,57.2
2018-12-07T02:55:45.115Z,57.2
2018-12-07T02:56:34.407Z,57.2
2018-12-07T02:57:24.124Z,57.2
2018-12-07T02:58:15.295Z,57.1
2018-12-07T02:59:04.777Z,57.1
2018-12-07T02:59:54.935Z,57.1
2018-12-07T03:00:45.240Z,57.1
2018-12-07T03:01:34.667Z,57.1
2018-12-07T03:02:25.015Z,57.1
2018-12-07T03:03:15.344Z,57.1
2018-12-07T03:04:05.997Z,57.1
2018-12-07T03:04:54.875Z,57.1
2018-12-07T03:05:45.482Z,57.1
2018-12-07T03:06:35.304Z,57.1
2018-12-07T03:07:24.800Z,57.1
2018-12-07T03:08:15.682Z,57.1
2018-12-07T03:09:05.707Z,57.1
2018-12-07T03:09:55.511Z,57.1
2018-12-07T03:10:45.294Z,57.1
2018-12-07T03:11:35.372Z,57.1
2018-12-07T03:12:26.325Z,57
2018-12-07T03:13:15.477Z,57
2018-12-07T03:14:05.786Z,57
2018-12-07T03:14:56.164Z,57
2018-12-07T03:15:45.636Z,57
2018-12-07T03:16:36.525Z,57
2018-12-07T03:17:26.047Z,57
2018-12-07T03:18:16.354Z,57
2018-12-07T03:19:05.859Z,56.9
2018-12-07T03:19:56.264Z,57
2018-12-07T03:20:46.868Z,57
2018-12-07T03:21:36.868Z,57
2018-12-07T03:22:26.096Z,56.9
2018-12-07T03:23:17.238Z,56.9
2018-12-07T03:24:06.513Z,56.9
2018-12-07T03:24:56.926Z,56.9
2018-12-07T03:25:47.225Z,56.9
2018-12-07T03:26:36.936Z,56.9
2018-12-07T03:27:27.071Z,56.9
2018-12-07T03:28:16.816Z,56.9
2018-12-07T03:29:06.875Z,56.9
2018-12-07T03:29:56.711Z,56.9
2018-12-07T03:30:47.599Z,56.9
2018-12-07T03:31:37.544Z,56.9
2018-12-07T03:32:27.307Z,56.9
2018-12-07T03:33:17.451Z,56.9
2018-12-07T03:34:07.751Z,56.8
2018-12-07T03:34:57.780Z,56.8
2018-12-07T03:35:47.592Z,56.8
2018-12-07T03:36:37.353Z,56.8
2018-12-07T03:37:27.965Z,56.8
2018-12-07T03:38:17.471Z,56.8
2018-12-07T03:39:07.802Z,56.8
2018-12-07T03:39:57.825Z,56.8
2018-12-07T03:40:47.353Z,56.8
2018-12-07T03:41:38.002Z,56.8
2018-12-07T03:42:28.017Z,56.8
2018-12-07T03:43:17.862Z,56.8
2018-12-07T03:44:08.451Z,56.8
2018-12-07T03:45:00.929Z,56.8
2018-12-07T03:45:47.979Z,56.8
2018-12-07T03:46:37.482Z,56.8
2018-12-07T03:47:27.799Z,56.7
2018-12-07T03:48:18.692Z,56.7
2018-12-07T03:49:08.794Z,56.7
2018-12-07T03:49:58.523Z,56.7
2018-12-07T03:50:48.399Z,56.7
2018-12-07T03:51:38.176Z,56.7
2018-12-07T03:52:28.962Z,56.7
2018-12-07T03:53:19.033Z,56.6
2018-12-07T03:54:10.652Z,56.6
2018-12-07T03:54:59.390Z,56.7
2018-12-07T03:55:48.922Z,56.7
2018-12-07T03:56:38.713Z,56.6
2018-12-07T03:57:29.353Z,56.6
2018-12-07T03:58:18.839Z,56.6
2018-12-07T03:59:08.362Z,56.6
2018-12-07T03:59:59.249Z,56.6
2018-12-07T04:00:49.344Z,56.6
2018-12-07T04:01:39.344Z,56.6
2018-12-07T04:02:29.383Z,56.6
2018-12-07T04:03:19.823Z,56.6
2018-12-07T04:04:09.548Z,56.6
2018-12-07T04:04:59.568Z,56.6
2018-12-07T04:05:50.255Z,56.6
2018-12-07T04:06:39.701Z,56.6
2018-12-07T04:07:29.704Z,56.6
2018-12-07T04:08:19.138Z,56.6
2018-12-07T04:09:09.405Z,56.5
2018-12-07T04:09:59.154Z,56.5
2018-12-07T04:10:49.503Z,56.5
2018-12-07T04:11:39.038Z,56.5
2018-12-07T04:12:29.595Z,56.5
2018-12-07T04:13:19.683Z,56.5
2018-12-07T04:14:09.168Z,56.5
2018-12-07T04:15:00.064Z,56.5
2018-12-07T04:15:50.391Z,56.5
2018-12-07T04:16:40.063Z,56.4
2018-12-07T04:17:30.139Z,56.4
2018-12-07T04:18:20.564Z,56.4
2018-12-07T04:19:10.015Z,56.4
2018-12-07T04:20:00.890Z,56.4
2018-12-07T04:20:50.977Z,56.4
2018-12-07T04:21:40.735Z,56.4
2018-12-07T04:22:30.218Z,56.4
2018-12-07T04:23:20.826Z,56.4
2018-12-07T04:24:10.858Z,56.4
2018-12-07T04:25:00.115Z,56.4
2018-12-07T04:25:50.991Z,56.4
2018-12-07T04:26:41.357Z,56.4
2018-12-07T04:27:31.126Z,56.4
2018-12-07T04:28:20.924Z,56.4
2018-12-07T04:29:10.928Z,56.3
2018-12-07T04:30:00.450Z,56.4
2018-12-07T04:30:51.690Z,56.3
2018-12-07T04:31:40.591Z,56.3
2018-12-07T04:32:31.216Z,56.3
2018-12-07T04:33:21.548Z,56.3
2018-12-07T04:34:11.573Z,56.3
2018-12-07T04:35:01.636Z,56.3
2018-12-07T04:35:51.795Z,56.3
2018-12-07T04:36:41.497Z,56.3
2018-12-07T04:53:58.084Z,56.1
2018-12-07T04:54:47.541Z,56.1
2018-12-07T04:55:37.547Z,56.1
2018-12-07T04:56:27.909Z,56.1
2018-12-07T04:57:18.237Z,56.1
2018-12-07T04:58:08.319Z,56.1
2018-12-07T04:58:58.502Z,56.1
2018-12-07T04:59:48.438Z,56.1
2018-12-07T05:00:37.698Z,56.1
2018-12-07T05:01:28.594Z,56.1
2018-12-07T05:02:18.331Z,56.1
2018-12-07T05:03:08.417Z,56.1
2018-12-07T05:03:57.589Z,56.1
2018-12-07T05:04:48.527Z,56.1
2018-12-07T05:05:38.833Z,56.1
2018-12-07T05:06:28.325Z,56.1
2018-12-07T05:07:18.683Z,56
2018-12-07T05:08:09.018Z,56
2018-12-07T05:08:59.046Z,56
2018-12-07T05:09:48.581Z,56
2018-12-07T05:10:39.161Z,56
2018-12-07T05:11:28.685Z,56
2018-12-07T05:12:18.755Z,56
2018-12-07T05:13:08.515Z,56
2018-12-07T05:13:58.548Z,55.9
2018-12-07T05:14:49.469Z,55.9
2018-12-07T05:15:38.998Z,55.9
2018-12-07T05:16:29.348Z,55.9
2018-12-07T05:17:19.072Z,55.9
2018-12-07T05:18:09.412Z,55.9
2018-12-07T05:18:58.620Z,55.9
2018-12-07T05:19:49.837Z,55.9
2018-12-07T05:20:39.454Z,55.9
2018-12-07T05:21:29.358Z,55.9
2018-12-07T05:22:19.472Z,55.9
2018-12-07T05:23:08.965Z,55.9
2018-12-07T05:23:59.492Z,55.9
2018-12-07T05:24:50.363Z,55.9
2018-12-07T05:25:39.634Z,55.9
2018-12-07T05:26:30.322Z,55.9
2018-12-07T05:27:20.022Z,55.9
2018-12-07T05:28:10.060Z,55.8
2018-12-07T05:29:00.394Z,55.9
2018-12-07T05:29:50.247Z,55.8
2018-12-07T05:30:40.053Z,55.8
2018-12-07T05:31:30.852Z,55.8
2018-12-07T05:32:19.955Z,55.8
2018-12-07T05:33:10.683Z,55.8
2018-12-07T05:34:00.462Z,55.8
2018-12-07T05:34:50.074Z,55.8
2018-12-07T05:35:39.824Z,55.8
2018-12-07T05:36:30.596Z,55.8
2018-12-07T05:37:20.502Z,55.8
2018-12-07T05:38:09.709Z,55.8
2018-12-07T05:39:00.051Z,55.8
2018-12-07T05:39:50.699Z,55.8
2018-12-07T05:40:40.163Z,55.8
2018-12-07T05:41:30.576Z,55.8
2018-12-07T05:42:20.818Z,55.7
2018-12-07T05:43:10.699Z,55.7
2018-12-07T05:44:00.731Z,55.7
2018-12-07T05:44:50.726Z,55.7
2018-12-07T05:45:40.811Z,55.7
2018-12-07T05:46:31.187Z,55.7
2018-12-07T05:47:20.595Z,55.7
2018-12-07T05:48:10.939Z,55.7
2018-12-07T05:49:00.963Z,55.7
2018-12-07T05:49:51.246Z,55.6
2018-12-07T05:50:41.628Z,55.6
2018-12-07T05:51:32.045Z,55.6
2018-12-07T05:52:21.983Z,55.6
2018-12-07T05:53:12.023Z,55.6
2018-12-07T05:54:02.165Z,55.6
2018-12-07T05:54:51.629Z,55.6
2018-12-07T05:55:41.885Z,55.6
2018-12-07T05:56:31.485Z,55.6
2018-12-07T05:57:22.277Z,55.6
2018-12-07T05:58:12.103Z,55.6
2018-12-07T05:59:01.945Z,55.6
2018-12-07T05:59:51.733Z,55.6
2018-12-07T06:00:41.500Z,55.6
2018-12-07T06:01:32.107Z,55.6
2018-12-07T06:02:21.993Z,55.6
2018-12-07T06:03:11.730Z,55.6
2018-12-07T06:04:02.299Z,55.5
2018-12-07T06:04:51.762Z,55.5
2018-12-07T06:05:42.472Z,55.5
2018-12-07T06:06:32.169Z,55.5
2018-12-07T06:07:21.617Z,55.5
2018-12-07T06:08:12.177Z,55.5
2018-12-07T06:09:02.803Z,55.5
2018-12-07T06:09:52.371Z,55.5
2018-12-07T06:10:42.341Z,55.5
2018-12-07T06:11:32.748Z,55.5
2018-12-07T06:12:22.489Z,55.4
2018-12-07T06:13:13.387Z,55.4
2018-12-07T06:14:02.584Z,55.4
2018-12-07T06:14:52.392Z,55.4
2018-12-07T06:15:43.291Z,55.4
2018-12-07T06:16:33.073Z,55.4
2018-12-07T06:17:23.363Z,55.4
2018-12-07T06:18:13.230Z,55.4
2018-12-07T06:19:02.989Z,55.4
2018-12-07T06:19:52.781Z,55.4
2018-12-07T06:20:42.901Z,55.4
2018-12-07T06:21:33.512Z,55.4
2018-12-07T06:22:23.478Z,55.4
2018-12-07T06:23:13.813Z,55.4
2018-12-07T06:24:04.197Z,55.4
2018-12-07T06:24:53.748Z,55.4
2018-12-07T06:25:43.784Z,55.4
2018-12-07T06:26:33.548Z,55.4
2018-12-07T06:27:23.293Z,55.4
2018-12-07T06:28:13.929Z,55.3
2018-12-07T06:29:03.942Z,55.3
2018-12-07T06:29:53.823Z,55.3
2018-12-07T06:30:43.772Z,55.3
2018-12-07T06:31:33.564Z,55.3
2018-12-07T06:32:23.899Z,55.3
2018-12-07T06:33:14.474Z,55.3
2018-12-07T06:34:03.187Z,55.3
2018-12-07T06:34:54.370Z,55.3
2018-12-07T06:35:43.572Z,55.3
2018-12-07T06:36:33.629Z,55.3
2018-12-07T06:37:24.231Z,55.3
2018-12-07T06:38:14.011Z,55.3
2018-12-07T06:39:04.067Z,55.3
2018-12-07T06:39:55.991Z,55.3
2018-12-07T06:40:45.225Z,55.3
2018-12-07T06:41:34.494Z,55.2
2018-12-07T06:42:24.314Z,55.2
2018-12-07T06:43:14.689Z,55.2
2018-12-07T06:44:05.146Z,55.2
2018-12-07T06:44:55.893Z,55.2
2018-12-07T06:45:44.618Z,55.2
2018-12-07T06:46:34.846Z,55.2
2018-12-07T06:47:25.676Z,55.2
2018-12-07T06:48:15.018Z,55.1
2018-12-07T06:49:05.867Z,55.1
2018-12-07T06:49:55.844Z,55.1
2018-12-07T06:50:45.946Z,55.1
2018-12-07T06:51:35.804Z,55.1
2018-12-07T06:52:25.790Z,55.1
2018-12-07T06:53:15.516Z,55.1
2018-12-07T06:54:05.418Z,55.1
2018-12-07T06:54:55.617Z,55.1
2018-12-07T06:55:45.426Z,55.1
2018-12-07T06:56:36.090Z,55.1
2018-12-07T06:57:25.787Z,55.1
2018-12-07T06:58:15.910Z,55.1
2018-12-07T06:59:05.910Z,55.1
2018-12-07T06:59:55.750Z,55.1
2018-12-07T07:00:45.760Z,55.1
2018-12-07T07:01:36.625Z,55.1
2018-12-07T07:02:26.645Z,55.1
2018-12-07T07:03:16.277Z,55
2018-12-07T07:04:06.502Z,55
2018-12-07T07:04:56.587Z,55
2018-12-07T07:05:46.902Z,55
2018-12-07T07:06:36.722Z,55
2018-12-07T07:07:25.952Z,55
2018-12-07T07:08:17.062Z,55
2018-12-07T07:09:06.652Z,55
2018-12-07T07:09:57.262Z,55
2018-12-07T07:10:47.279Z,55
2018-12-07T07:11:37.027Z,54.9
2018-12-07T07:12:29.154Z,54.9
2018-12-07T07:13:16.849Z,54.9
2018-12-07T07:14:06.904Z,54.9
2018-12-07T07:14:57.244Z,54.9
2018-12-07T07:15:47.326Z,54.9
2018-12-07T07:16:37.371Z,54.9
2018-12-07T07:17:26.954Z,54.9
2018-12-07T07:18:17.481Z,54.9
2018-12-07T07:19:07.288Z,54.9
2018-12-07T07:19:57.898Z,54.9
2018-12-07T07:20:47.353Z,54.9
2018-12-07T07:21:38.000Z,54.9
2018-12-07T07:22:27.778Z,54.9
2018-12-07T07:23:17.554Z,54.9
2018-12-07T07:24:07.991Z,54.8
2018-12-07T07:24:58.204Z,54.9
2018-12-07T07:25:48.356Z,54.8
2018-12-07T07:26:38.061Z,54.8
2018-12-07T07:27:28.171Z,54.8
2018-12-07T07:28:18.174Z,54.8
2018-12-07T07:29:08.864Z,54.8
2018-12-07T07:29:58.670Z,54.8
2018-12-07T07:30:48.610Z,54.8
2018-12-07T07:31:46.308Z,54.8
2018-12-07T07:32:28.460Z,54.8
2018-12-07T07:33:18.507Z,54.8
2018-12-07T07:34:08.833Z,54.8
2018-12-07T07:34:58.365Z,54.8
2018-12-07T07:35:48.697Z,54.8
2018-12-07T07:36:38.847Z,54.8
2018-12-07T07:37:28.800Z,54.8
2018-12-07T07:38:17.734Z,54.7
2018-12-07T07:39:09.674Z,54.7
2018-12-07T07:39:57.884Z,54.7
2018-12-07T07:40:49.022Z,54.7
2018-12-07T07:41:38.552Z,54.7
2018-12-07T07:42:29.500Z,54.7
2018-12-07T07:43:18.639Z,54.7
2018-12-07T07:44:09.802Z,54.7
2018-12-07T07:44:59.327Z,54.7
2018-12-07T07:45:49.351Z,54.7
2018-12-07T07:46:39.239Z,54.6
2018-12-07T07:47:29.479Z,54.6
2018-12-07T07:48:19.534Z,54.6
2018-12-07T07:49:09.376Z,54.6
2018-12-07T07:49:59.659Z,54.6
2018-12-07T07:50:49.251Z,54.6
2018-12-07T07:51:40.064Z,54.6
2018-12-07T07:52:29.545Z,54.6
2018-12-07T07:53:19.439Z,54.6
2018-12-07T07:54:09.954Z,54.6
2018-12-07T07:55:00.281Z,54.6
2018-12-07T07:55:50.334Z,54.6
2018-12-07T07:56:40.114Z,54.6
2018-12-07T07:57:29.893Z,54.6
2018-12-07T07:58:20.268Z,54.6
2018-12-07T07:59:08.986Z,54.6
2018-12-07T08:00:00.358Z,54.6
2018-12-07T08:00:50.973Z,54.5
2018-12-07T08:01:40.451Z,54.5
2018-12-07T08:02:31.441Z,54.5
2018-12-07T08:03:20.833Z,54.5
2018-12-07T08:04:10.101Z,54.5
2018-12-07T08:05:01.213Z,54.4
2018-12-07T08:05:50.720Z,54.4
2018-12-07T08:06:40.520Z,54.4
2018-12-07T08:07:30.577Z,54.4
2018-12-07T08:08:20.923Z,54.4
2018-12-07T08:09:11.278Z,54.4
2018-12-07T08:10:00.738Z,54.4
2018-12-07T08:10:51.607Z,54.4
2018-12-07T08:11:40.938Z,54.4
2018-12-07T08:12:31.295Z,54.4
2018-12-07T08:13:21.253Z,54.4
2018-12-07T08:14:11.639Z,54.4
2018-12-07T08:15:00.824Z,54.4
2018-12-07T08:15:51.222Z,54.4
2018-12-07T08:16:40.754Z,54.4
2018-12-07T08:17:31.315Z,54.4
2018-12-07T08:18:21.659Z,54.4
2018-12-07T08:19:11.332Z,54.3
2018-12-07T08:20:01.772Z,54.3
2018-12-07T08:20:51.312Z,54.3
2018-12-07T08:21:41.079Z,54.3
2018-12-07T08:22:31.882Z,54.3
2018-12-07T08:23:21.013Z,54.3
2018-12-07T08:24:12.312Z,54.3
2018-12-07T08:25:01.335Z,54.3
2018-12-07T08:25:51.681Z,54.3
2018-12-07T08:26:42.285Z,54.3
2018-12-07T08:27:32.531Z,54.3
2018-12-07T08:28:24.219Z,54.3
2018-12-07T08:29:12.644Z,54.3
2018-12-07T08:30:02.691Z,54.3
2018-12-07T08:30:52.756Z,54.3
2018-12-07T08:31:42.348Z,54.3
2018-12-07T08:32:32.576Z,54.3
2018-12-07T08:33:22.986Z,54.2
2018-12-07T08:34:12.704Z,54.2
2018-12-07T08:35:02.623Z,54.2
2018-12-07T08:35:53.151Z,54.2
2018-12-07T08:36:42.870Z,54.2
2018-12-07T08:37:32.918Z,54.2
2018-12-07T08:38:22.407Z,54.2
2018-12-07T08:39:13.315Z,54.1
2018-12-07T08:40:03.153Z,54.2
2018-12-07T08:40:53.680Z,54.1
2018-12-07T08:41:43.253Z,54.1
2018-12-07T08:42:33.015Z,54.1
2018-12-07T08:43:23.688Z,54.1
2018-12-07T08:44:13.660Z,54.1
2018-12-07T08:45:03.471Z,54.1
2018-12-07T08:45:52.958Z,54.1
2018-12-07T08:46:43.088Z,54.1
2018-12-07T08:47:33.100Z,54.1
2018-12-07T08:48:23.395Z,54.1
2018-12-07T08:49:14.007Z,54.1
2018-12-07T08:50:03.657Z,54.1
2018-12-07T08:50:53.873Z,54.1
2018-12-07T08:51:44.177Z,54.1
2018-12-07T08:52:33.694Z,54.1
2018-12-07T09:08:19.998Z,53.9
2018-12-07T09:09:10.083Z,53.9
2018-12-07T09:10:00.692Z,53.9
2018-12-07T09:10:50.468Z,53.9
2018-12-07T09:11:41.334Z,53.9
2018-12-07T09:12:30.613Z,53.9
2018-12-07T09:13:20.923Z,53.9
2018-12-07T09:14:10.666Z,53.9
2018-12-07T09:15:00.737Z,53.9
2018-12-07T09:15:50.534Z,53.8
2018-12-07T09:16:41.441Z,53.9
2018-12-07T09:17:30.873Z,53.9
2018-12-07T09:18:20.951Z,53.9
2018-12-07T09:19:11.288Z,53.8
2018-12-07T09:20:00.588Z,53.8
2018-12-07T09:20:58.815Z,53.8
2018-12-07T09:21:41.393Z,53.8
2018-12-07T09:22:30.946Z,53.8
2018-12-07T09:23:21.513Z,53.8
2018-12-07T09:24:10.533Z,53.8
2018-12-07T09:25:00.856Z,53.8
2018-12-07T09:25:51.731Z,53.8
2018-12-07T09:26:41.836Z,53.8
2018-12-07T09:27:31.295Z,53.8
2018-12-07T09:28:22.244Z,53.8
2018-12-07T09:29:11.691Z,53.8
2018-12-07T09:30:01.455Z,53.8
2018-12-07T09:30:51.540Z,53.8
2018-12-07T09:31:41.647Z,53.8
2018-12-07T09:32:32.197Z,53.8
2018-12-07T09:33:22.527Z,53.7
2018-12-07T09:34:12.037Z,53.7
2018-12-07T09:35:01.644Z,53.7
2018-12-07T09:35:51.299Z,53.7
2018-12-07T09:36:42.193Z,53.7
2018-12-07T09:37:33.903Z,53.7
2018-12-07T09:38:22.596Z,53.7
2018-12-07T09:39:12.364Z,53.7
2018-12-07T09:40:02.267Z,53.7
2018-12-07T09:40:52.469Z,53.7
2018-12-07T09:41:42.580Z,53.7
2018-12-07T09:42:32.368Z,53.6
2018-12-07T09:43:22.351Z,53.6
2018-12-07T09:44:12.986Z,53.6
2018-12-07T09:45:02.012Z,53.6
2018-12-07T09:45:53.084Z,53.6
2018-12-07T09:46:43.164Z,53.6
2018-12-07T09:47:32.178Z,53.6
2018-12-07T09:48:22.788Z,53.6
2018-12-07T09:49:13.210Z,53.6
2018-12-07T09:50:02.964Z,53.6
2018-12-07T09:50:52.911Z,53.6
2018-12-07T09:51:43.041Z,53.6
2018-12-07T09:52:33.550Z,53.6
2018-12-07T09:53:23.623Z,53.6
2018-12-07T09:54:13.153Z,53.6
2018-12-07T09:55:03.473Z,53.6
2018-12-07T09:55:53.905Z,53.6
2018-12-07T09:56:43.580Z,53.6
2018-12-07T09:57:33.960Z,53.5
2018-12-07T09:58:23.797Z,53.5
2018-12-07T09:59:13.477Z,53.5
2018-12-07T10:00:03.818Z,53.5
2018-12-07T10:00:54.391Z,53.5
2018-12-07T10:01:43.646Z,53.6
2018-12-07T10:02:33.828Z,53.6
2018-12-07T10:03:24.321Z,53.6
2018-12-07T10:04:14.423Z,53.6
2018-12-07T10:05:04.204Z,53.7
2018-12-07T10:05:53.647Z,53.7
2018-12-07T10:06:43.977Z,53.8
2018-12-07T10:07:34.615Z,53.9
2018-12-07T10:08:24.984Z,53.9
2018-12-07T10:09:14.410Z,53.9
2018-12-07T10:10:04.383Z,54
2018-12-07T10:10:54.008Z,54.1
2018-12-07T10:11:44.122Z,54.1
2018-12-07T10:12:34.508Z,54.3
2018-12-07T10:13:24.242Z,54.4
2018-12-07T10:14:14.802Z,54.4
2018-12-07T10:15:04.312Z,54.4
2018-12-07T10:15:54.613Z,54.5
2018-12-07T10:16:45.285Z,54.6
2018-12-07T10:17:35.122Z,54.6
2018-12-07T10:18:24.787Z,54.6
2018-12-07T10:19:15.403Z,54.8
2018-12-07T10:20:05.589Z,54.8
2018-12-07T10:20:55.300Z,54.8
2018-12-07T10:21:45.027Z,54.9
2018-12-07T10:22:35.085Z,54.9
2018-12-07T10:23:25.812Z,55
2018-12-07T10:24:15.503Z,55.1
2018-12-07T10:25:06.077Z,55.1
2018-12-07T10:25:55.579Z,55.2
2018-12-07T10:26:45.943Z,55.3
2018-12-07T10:27:35.412Z,55.3
2018-12-07T10:28:25.777Z,55.4
2018-12-07T10:29:15.862Z,55.4
2018-12-07T10:30:06.449Z,55.6
2018-12-07T10:30:55.664Z,55.6
2018-12-07T10:31:46.276Z,55.6
2018-12-07T10:32:36.061Z,55.6
2018-12-07T10:33:26.172Z,55.7
2018-12-07T10:34:16.198Z,55.8
2018-12-07T10:35:06.254Z,55.8
2018-12-07T10:35:56.522Z,55.9
2018-12-07T10:36:46.341Z,55.9
2018-12-07T10:37:36.420Z,56
2018-12-07T10:38:26.457Z,56.1
2018-12-07T10:39:16.323Z,56.1
2018-12-07T10:40:06.926Z,56.2
2018-12-07T10:40:55.790Z,56.3
2018-12-07T10:41:46.990Z,56.3
2018-12-07T10:42:36.911Z,56.3
2018-12-07T10:43:26.800Z,56.4
2018-12-07T10:44:17.169Z,56.4
2018-12-07T10:45:06.958Z,56.4
2018-12-07T10:45:56.699Z,56.5
2018-12-07T10:46:47.043Z,56.6
2018-12-07T10:47:37.774Z,56.7
2018-12-07T10:48:26.332Z,56.8
2018-12-07T10:49:17.024Z,56.8
2018-12-07T10:50:07.250Z,56.9
2018-12-07T10:50:57.321Z,56.9
2018-12-07T10:51:47.663Z,57
2018-12-07T10:52:37.703Z,57.1
2018-12-07T10:53:27.481Z,57.1
2018-12-07T10:54:17.338Z,57.1
2018-12-07T10:55:09.578Z,57.2
2018-12-07T10:55:57.433Z,57.3
2018-12-07T10:56:47.812Z,57.3
2018-12-07T10:57:37.787Z,57.4
2018-12-07T10:58:27.878Z,57.4
2018-12-07T10:59:17.349Z,57.5
2018-12-07T11:00:08.221Z,57.5
2018-12-07T11:00:57.685Z,57.6
2018-12-07T11:01:48.003Z,57.6
2018-12-07T11:02:39.876Z,57.7
2018-12-07T11:04:18.283Z,57.8
2018-12-07T11:05:08.572Z,57.9
2018-12-07T11:05:58.617Z,57.9
2018-12-07T11:06:48.760Z,57.9
2018-12-07T11:07:38.744Z,58
2018-12-07T11:08:28.279Z,58
2018-12-07T11:09:17.263Z,58.1
2018-12-07T11:10:08.235Z,58.2
2018-12-07T11:10:58.747Z,58.2
2018-12-07T11:11:48.545Z,58.3
2018-12-07T11:12:38.619Z,58.3
2018-12-07T11:13:29.151Z,58.3
2018-12-07T11:14:19.202Z,58.4
2018-12-07T11:15:08.550Z,58.4
2018-12-07T11:15:59.252Z,58.4
2018-12-07T11:16:49.114Z,58.5
2018-12-07T11:17:38.919Z,58.5
2018-12-07T11:19:18.809Z,58.6
2018-12-07T11:20:08.554Z,58.7
2018-12-07T11:20:59.157Z,58.8
2018-12-07T11:21:49.249Z,58.8
2018-12-07T11:22:39.284Z,58.8
2018-12-07T11:23:29.104Z,58.8
2018-12-07T11:24:18.866Z,58.9
2018-12-07T11:25:08.891Z,58.9
2018-12-07T11:25:59.611Z,59
2018-12-07T11:26:49.286Z,59
2018-12-07T11:27:39.126Z,59.1
2018-12-07T11:28:29.185Z,59.1
2018-12-07T11:29:19.458Z,59.1
2018-12-07T11:30:09.570Z,59.2
2018-12-07T11:30:59.313Z,59.2
2018-12-07T11:31:50.203Z,59.2
2018-12-07T11:32:39.973Z,59.3
2018-12-07T11:33:30.038Z,59.3
2018-12-07T11:34:20.058Z,59.3
2018-12-07T11:35:09.708Z,59.4
2018-12-07T11:36:00.240Z,59.4
2018-12-07T11:36:49.721Z,59.4
2018-12-07T11:37:39.954Z,59.4
2018-12-07T11:38:30.458Z,59.5
2018-12-07T11:39:20.195Z,59.5
2018-12-07T11:40:10.543Z,59.6
2018-12-07T11:41:00.608Z,59.6
2018-12-07T11:41:50.338Z,59.7
2018-12-07T11:42:40.674Z,59.7
2018-12-07T11:43:30.447Z,59.8
2018-12-07T11:44:20.237Z,59.8
2018-12-07T11:45:10.565Z,59.8
2018-12-07T11:46:01.200Z,59.8
2018-12-07T11:46:50.670Z,59.9
2018-12-07T11:47:40.487Z,59.9
2018-12-07T11:48:30.827Z,59.9
2018-12-07T11:49:20.544Z,59.9
2018-12-07T11:50:11.165Z,59.9
2018-12-07T11:51:01.695Z,59.9
2018-12-07T11:51:51.518Z,60
2018-12-07T11:52:42.125Z,60.1
2018-12-07T11:53:31.719Z,60.1
2018-12-07T11:54:21.205Z,60.1
2018-12-07T11:55:11.862Z,60.1
2018-12-07T11:56:02.375Z,60.2
2018-12-07T11:56:51.902Z,60.2
2018-12-07T11:57:41.897Z,60.3
2018-12-07T11:58:31.744Z,60.3
2018-12-07T11:59:21.788Z,60.3
2018-12-07T12:00:12.360Z,60.4
2018-12-07T12:01:03.068Z,60.4
2018-12-07T12:01:52.481Z,60.4
2018-12-07T12:02:42.262Z,60.4
2018-12-07T12:03:32.394Z,60.5
2018-12-07T12:04:22.370Z,60.5
2018-12-07T12:05:12.416Z,60.6
2018-12-07T12:06:02.606Z,60.6
2018-12-07T12:06:52.823Z,60.6
2018-12-07T12:07:42.654Z,60.6